Time;durP1;ratioP1;P1;durP2;ratioP2;P2;SDS_P1;SDS_P2;PMS_P1;PMS_P2;Temp;Humidity;BMP_temperature;BMP_pressure;BME280_temperature;BME280_humidity;BME280_pressure;Samples;Min_cycle;Max_cycle;Signal;HPM_P1;HPM_P2
2022/11/29 13:04:35;;;;;;;4.03;3.15;;;;;;;17.59;51.75;100541.78;10248432;27;1280799;-75
2022/11/29 13:09:38;;;;;;;4.35;3.20;;;;;;;17.84;51.29;100547.03;10276870;27;65390;-75
2022/11/29 13:14:32;;;;;;;4.78;3.15;;;;;;;17.99;51.17;100540.56;10249881;27;66342;-76
2022/11/29 13:19:28;;;;;;;4.10;3.00;;;;;;;18.15;50.88;100538.44;10271618;27;66884;-73
2022/11/29 13:24:24;;;;;;;5.40;3.45;;;;;;;18.26;50.85;100539.94;10272586;27;65647;-72
2022/11/29 13:29:17;;;;;;;4.18;3.05;;;;;;;18.42;50.35;100546.03;10277044;27;65578;-74
2022/11/29 13:34:09;;;;;;;6.28;3.08;;;;;;;18.69;49.49;100546.22;10274945;27;66284;-75
2022/11/29 13:39:08;;;;;;;3.38;2.92;;;;;;;18.82;49.16;100544.66;10277510;27;66989;-77
2022/11/29 13:44:04;;;;;;;4.15;2.97;;;;;;;19.00;48.89;100541.06;10275206;27;66605;-76
2022/11/29 13:48:56;;;;;;;5.22;3.15;;;;;;;19.12;48.31;100541.41;10276079;27;66269;-77
2022/11/29 13:53:48;;;;;;;3.17;2.85;;;;;;;19.24;48.20;100546.44;10277724;27;66529;-81
2022/11/29 13:58:42;;;;;;;5.30;3.25;;;;;;;19.30;47.97;100553.47;10275520;27;66607;-79
2022/11/29 14:03:38;;;;;;;3.15;2.63;;;;;;;19.36;47.85;100555.03;10275175;27;66262;-82
2022/11/29 14:08:31;;;;;;;3.53;3.08;;;;;;;19.45;47.58;100557.91;10272574;27;66251;-81
2022/11/29 14:13:24;;;;;;;5.88;3.60;;;;;;;19.42;47.63;100558.50;10254336;27;66477;-75
2022/11/29 14:18:49;;;;;;;4.53;2.90;;;;;;;19.50;47.41;100563.31;10247081;27;65695;-75
2022/11/29 14:23:41;;;;;;;4.38;3.28;;;;;;;19.50;47.48;100571.56;10233807;27;66017;-72
2022/11/29 14:28:33;;;;;;;4.22;3.30;;;;;;;19.57;47.28;100567.31;10246164;27;66995;-76
2022/11/29 14:33:37;;;;;;;3.45;3.03;;;;;;;19.53;47.60;100574.56;10241040;27;66340;-73
2022/11/29 14:38:32;;;;;;;3.45;3.10;;;;;;;19.57;47.19;100575.56;10238998;27;65617;-75
2022/11/29 14:43:26;;;;;;;4.78;3.45;;;;;;;19.65;47.18;100591.38;10243801;27;65692;-72
2022/11/29 14:48:24;;;;;;;3.75;2.85;;;;;;;19.68;47.07;100590.78;10248226;27;66485;-74
2022/11/29 14:53:28;;;;;;;4.25;2.90;;;;;;;19.65;47.15;100591.38;10247496;27;66163;-75
2022/11/29 14:58:22;;;;;;;3.92;2.83;;;;;;;19.70;47.02;100605.06;10240434;27;66430;-72
2022/11/29 15:03:18;;;;;;;3.47;2.70;;;;;;;19.76;47.12;100597.53;10247120;27;66412;-73
2022/11/29 15:08:14;;;;;;;4.78;2.90;;;;;;;19.78;47.07;100606.28;10240702;27;65662;-77
2022/11/29 15:13:06;;;;;;;4.07;3.15;;;;;;;19.74;47.06;100606.06;10239370;27;65527;-74
2022/11/29 15:18:02;;;;;;;3.25;2.65;;;;;;;19.77;46.97;100607.41;10246705;27;66331;-74
2022/11/29 15:22:55;;;;;;;3.58;2.92;;;;;;;19.81;46.88;100602.91;10242560;27;66029;-72
2022/11/29 15:27:51;;;;;;;5.43;3.22;;;;;;;19.75;46.92;100604.13;10245316;27;65352;-76
2022/11/29 15:32:43;;;;;;;4.53;2.80;;;;;;;19.76;46.91;100608.53;10245288;27;66282;-78
2022/11/29 15:37:43;;;;;;;5.55;3.10;;;;;;;19.84;46.91;100615.25;10233979;27;65623;-75
2022/11/29 15:42:40;;;;;;;3.58;3.13;;;;;;;19.83;46.77;100611.69;10240126;27;66366;-75
2022/11/29 15:47:32;;;;;;;3.78;2.80;;;;;;;19.80;46.88;100622.47;10240702;27;65232;-75
2022/11/29 15:52:25;;;;;;;3.53;2.85;;;;;;;19.83;46.79;100624.63;10239061;27;66292;-74
2022/11/29 15:57:20;;;;;;;3.30;2.92;;;;;;;19.83;46.70;100630.13;10233534;27;66433;-74
2022/11/29 16:02:16;;;;;;;3.58;2.95;;;;;;;19.84;46.72;100634.53;10235556;27;66526;-74
2022/11/29 16:07:08;;;;;;;3.10;2.70;;;;;;;19.76;47.00;100645.09;10237810;27;65801;-70
2022/11/29 16:12:00;;;;;;;3.17;2.72;;;;;;;19.58;47.26;100634.97;10242384;27;66519;-69
2022/11/29 16:16:54;;;;;;;3.25;2.80;;;;;;;19.61;47.11;100633.56;10242110;27;65664;-71
2022/11/29 16:21:57;;;;;;;2.95;2.65;;;;;;;19.60;47.05;100635.47;10241745;27;65585;-69
2022/11/29 16:26:49;;;;;;;3.05;2.50;;;;;;;19.60;47.59;100635.47;10245818;27;65619;-69
2022/11/29 16:31:41;;;;;;;3.20;2.83;;;;;;;19.62;47.42;100647.00;10988846;22;66979;-73
2022/11/29 16:36:35;;;;;;;4.45;2.70;;;;;;;19.57;47.71;100644.31;10117310;28;66435;-75
2022/11/29 16:41:31;;;;;;;2.78;2.50;;;;;;;19.58;47.54;100653.41;10117936;28;66408;-76
2022/11/29 16:46:30;;;;;;;4.40;2.60;;;;;;;19.54;47.85;100644.94;10122702;28;67268;-74
2022/11/29 16:51:23;;;;;;;3.10;2.50;;;;;;;19.51;47.80;100651.03;10119112;28;66089;-75
2022/11/29 16:56:18;;;;;;;2.90;2.60;;;;;;;19.31;48.24;100657.66;10122891;28;65531;-75
2022/11/29 17:01:16;;;;;;;4.53;2.80;;;;;;;19.14;48.91;100657.38;10122446;28;66468;-74
2022/11/29 17:06:08;;;;;;;4.38;2.67;;;;;;;19.16;48.71;100663.38;10120716;28;66543;-74
2022/11/29 17:11:00;;;;;;;2.78;2.58;;;;;;;19.15;48.96;100670.00;10122747;28;65635;-74
2022/11/29 17:15:54;;;;;;;3.10;2.63;;;;;;;19.10;49.04;100672.00;10119934;28;66537;-74
2022/11/29 17:20:46;;;;;;;2.50;2.30;;;;;;;19.13;48.86;100669.47;10119288;28;66325;-75
2022/11/29 17:25:38;;;;;;;2.90;2.60;;;;;;;19.09;48.95;100678.63;10122814;28;65513;-73
2022/11/29 17:30:30;;;;;;;3.35;2.75;;;;;;;19.05;49.00;100670.13;10121508;28;66338;-74
2022/11/29 17:35:24;;;;;;;3.10;2.75;;;;;;;19.11;48.91;100676.41;10123604;28;65672;-74
2022/11/29 17:40:16;;;;;;;4.65;2.75;;;;;;;19.10;49.00;100680.25;10118730;28;66698;-74
2022/11/29 17:45:08;;;;;;;4.90;2.72;;;;;;;19.30;48.39;100679.94;10851697;22;66144;-73
2022/11/29 17:50:00;;;;;;;4.07;2.80;;;;;;;19.34;48.37;100690.03;10072534;28;66384;-71
2022/11/29 17:54:54;;;;;;;2.78;2.38;;;;;;;19.32;48.28;100689.53;10068177;28;66355;-78
2022/11/29 17:59:46;;;;;;;3.03;2.72;;;;;;;19.33;48.20;100684.84;10067455;28;66177;-72
2022/11/29 18:04:41;;;;;;;3.67;3.08;;;;;;;19.29;48.28;100689.31;10077898;28;66307;-70
2022/11/29 18:09:33;;;;;;;3.75;3.03;;;;;;;19.26;48.43;100693.47;10072983;28;65615;-71
2022/11/29 18:14:27;;;;;;;3.50;2.97;;;;;;;19.23;48.23;100699.56;10071830;28;66273;-71
2022/11/29 18:19:20;;;;;;;3.28;2.88;;;;;;;19.20;48.26;100702.06;10072524;28;66619;-73
2022/11/29 18:24:12;;;;;;;3.40;2.55;;;;;;;19.13;48.32;100698.88;10069453;28;66395;-70
2022/11/29 18:29:05;;;;;;;2.92;2.63;;;;;;;19.10;48.59;100702.25;10079667;28;66111;-71
2022/11/29 18:33:59;;;;;;;3.28;2.80;;;;;;;19.00;48.92;100703.19;10069654;28;65605;-73
2022/11/29 18:38:54;;;;;;;3.65;2.65;;;;;;;19.03;48.71;100716.34;10072630;28;66369;-71
2022/11/29 18:43:47;;;;;;;3.47;2.50;;;;;;;18.98;49.12;100722.72;10078105;28;67295;-71
2022/11/29 18:48:39;;;;;;;3.28;2.70;;;;;;;18.95;49.19;100730.75;10067218;28;65498;-72
2022/11/29 18:56:53;;;;;;;4.18;2.65;;;;;;;19.71;47.81;100722.22;10259249;27;43627;-66
2022/11/29 19:01:46;;;;;;;4.93;2.63;;;;;;;20.12;46.92;100716.00;10226689;27;66095;-67
2022/11/29 19:06:38;;;;;;;6.97;2.83;;;;;;;19.78;47.66;100728.13;10235038;27;66296;-65
2022/11/29 19:11:31;;;;;;;2.72;2.40;;;;;;;19.78;47.54;100728.13;10223521;27;65721;-64
2022/11/29 19:16:24;;;;;;;2.95;2.65;;;;;;;19.66;47.86;100732.47;10227757;27;65608;-64
2022/11/29 19:25:39;;;;;;;3.47;2.92;;;;;;;19.59;47.83;100738.38;10262565;27;43244;-63
2022/11/29 19:30:31;;;;;;;3.38;2.78;;;;;;;19.61;47.99;100738.06;10263228;27;66362;-63
2022/11/29 19:35:23;;;;;;;3.72;2.40;;;;;;;19.63;47.85;100739.41;10264465;27;66457;-62
2022/11/29 19:40:15;;;;;;;5.18;2.90;;;;;;;19.42;47.73;100738.03;10257794;27;66088;-69
2022/11/29 19:45:10;;;;;;;3.47;2.55;;;;;;;19.55;47.74;100739.28;10252566;27;66168;-63
2022/11/29 19:50:02;;;;;;;3.22;2.80;;;;;;;19.60;47.51;100748.25;10254536;27;66401;-63
2022/11/29 19:54:54;;;;;;;2.58;2.38;;;;;;;19.61;47.67;100747.16;10255954;27;66120;-63
